sensor_id;sensor_type;location;lat;lon;timestamp;P1;durP1;ratioP1;P2;durP2;ratioP2
13571;SDS011;6857;53.484;10.216;2023-08-08T00:00:29;2.73;;;1.67;;
13571;SDS011;6857;53.484;10.216;2023-08-08T00:02:55;7.00;;;2.13;;
13571;SDS011;6857;53.484;10.216;2023-08-08T00:05:21;4.50;;;1.93;;
13571;SDS011;6857;53.484;10.216;2023-08-08T00:07:47;4.33;;;2.03;;
13571;SDS011;6857;53.484;10.216;2023-08-08T00:10:13;5.43;;;1.93;;
13571;SDS011;6857;53.484;10.216;2023-08-08T00:12:39;4.93;;;2.60;;
13571;SDS011;6857;53.484;10.216;2023-08-08T00:15:05;3.40;;;1.87;;
13571;SDS011;6857;53.484;10.216;2023-08-08T00:17:31;3.87;;;1.73;;
13571;SDS011;6857;53.484;10.216;2023-08-08T00:19:57;5.43;;;1.90;;
13571;SDS011;6857;53.484;10.216;2023-08-08T00:22:23;5.23;;;2.20;;
13571;SDS011;6857;53.484;10.216;2023-08-08T00:24:49;3.50;;;2.20;;
13571;SDS011;6857;53.484;10.216;2023-08-08T00:27:15;7.13;;;2.30;;
13571;SDS011;6857;53.484;10.216;2023-08-08T00:29:41;5.80;;;2.27;;
13571;SDS011;6857;53.484;10.216;2023-08-08T00:32:07;6.80;;;2.23;;
13571;SDS011;6857;53.484;10.216;2023-08-08T00:34:33;6.43;;;2.47;;
13571;SDS011;6857;53.484;10.216;2023-08-08T00:36:59;4.43;;;2.03;;
13571;SDS011;6857;53.484;10.216;2023-08-08T00:39:25;5.70;;;2.50;;
13571;SDS011;6857;53.484;10.216;2023-08-08T00:41:51;6.60;;;2.40;;
13571;SDS011;6857;53.484;10.216;2023-08-08T00:44:17;3.83;;;2.37;;
13571;SDS011;6857;53.484;10.216;2023-08-08T00:46:43;7.97;;;2.23;;
13571;SDS011;6857;53.484;10.216;2023-08-08T00:49:09;4.03;;;2.50;;
13571;SDS011;6857;53.484;10.216;2023-08-08T00:51:35;6.67;;;2.50;;
13571;SDS011;6857;53.484;10.216;2023-08-08T00:54:01;5.37;;;2.70;;
13571;SDS011;6857;53.484;10.216;2023-08-08T00:56:28;4.50;;;2.20;;
13571;SDS011;6857;53.484;10.216;2023-08-08T00:58:54;7.63;;;2.67;;
13571;SDS011;6857;53.484;10.216;2023-08-08T01:01:20;7.17;;;2.87;;
13571;SDS011;6857;53.484;10.216;2023-08-08T01:03:46;7.20;;;2.60;;
13571;SDS011;6857;53.484;10.216;2023-08-08T01:06:19;5.87;;;2.40;;
13571;SDS011;6857;53.484;10.216;2023-08-08T01:08:52;7.23;;;2.00;;
13571;SDS011;6857;53.484;10.216;2023-08-08T01:11:21;8.53;;;2.47;;
13571;SDS011;6857;53.484;10.216;2023-08-08T01:13:47;6.13;;;1.97;;
13571;SDS011;6857;53.484;10.216;2023-08-08T01:16:13;5.60;;;2.23;;
13571;SDS011;6857;53.484;10.216;2023-08-08T01:18:40;5.40;;;2.63;;
13571;SDS011;6857;53.484;10.216;2023-08-08T01:21:07;7.70;;;2.33;;
13571;SDS011;6857;53.484;10.216;2023-08-08T01:23:56;8.00;;;2.60;;
13571;SDS011;6857;53.484;10.216;2023-08-08T01:26:21;4.80;;;2.30;;
13571;SDS011;6857;53.484;10.216;2023-08-08T01:28:47;5.53;;;2.93;;
13571;SDS011;6857;53.484;10.216;2023-08-08T01:31:13;5.90;;;2.20;;
13571;SDS011;6857;53.484;10.216;2023-08-08T01:33:39;5.67;;;2.20;;
13571;SDS011;6857;53.484;10.216;2023-08-08T01:36:10;4.63;;;2.10;;
13571;SDS011;6857;53.484;10.216;2023-08-08T01:38:40;5.13;;;2.53;;
13571;SDS011;6857;53.484;10.216;2023-08-08T01:41:06;8.07;;;2.33;;
13571;SDS011;6857;53.484;10.216;2023-08-08T01:43:33;2.60;;;2.03;;
13571;SDS011;6857;53.484;10.216;2023-08-08T01:45:59;7.33;;;2.30;;
13571;SDS011;6857;53.484;10.216;2023-08-08T01:48:27;5.90;;;2.33;;
13571;SDS011;6857;53.484;10.216;2023-08-08T01:50:53;6.40;;;2.60;;
13571;SDS011;6857;53.484;10.216;2023-08-08T01:53:19;5.80;;;1.97;;
13571;SDS011;6857;53.484;10.216;2023-08-08T01:55:45;7.10;;;2.00;;
13571;SDS011;6857;53.484;10.216;2023-08-08T01:58:11;5.97;;;2.00;;
13571;SDS011;6857;53.484;10.216;2023-08-08T02:00:37;5.30;;;1.93;;
13571;SDS011;6857;53.484;10.216;2023-08-08T02:03:03;2.50;;;1.77;;
13571;SDS011;6857;53.484;10.216;2023-08-08T02:05:29;4.73;;;1.80;;
13571;SDS011;6857;53.484;10.216;2023-08-08T02:07:55;4.70;;;1.93;;
13571;SDS011;6857;53.484;10.216;2023-08-08T02:10:21;5.30;;;2.30;;
13571;SDS011;6857;53.484;10.216;2023-08-08T02:12:47;5.33;;;1.90;;
13571;SDS011;6857;53.484;10.216;2023-08-08T02:15:13;7.40;;;1.80;;
13571;SDS011;6857;53.484;10.216;2023-08-08T02:17:39;5.17;;;2.00;;
13571;SDS011;6857;53.484;10.216;2023-08-08T02:20:05;4.53;;;1.90;;
13571;SDS011;6857;53.484;10.216;2023-08-08T02:22:32;3.57;;;1.97;;
13571;SDS011;6857;53.484;10.216;2023-08-08T02:24:58;5.37;;;1.73;;
13571;SDS011;6857;53.484;10.216;2023-08-08T02:27:24;2.77;;;1.40;;
13571;SDS011;6857;53.484;10.216;2023-08-08T02:29:50;1.83;;;1.53;;
13571;SDS011;6857;53.484;10.216;2023-08-08T02:32:16;5.27;;;1.47;;
13571;SDS011;6857;53.484;10.216;2023-08-08T02:34:42;3.70;;;1.70;;
13571;SDS011;6857;53.484;10.216;2023-08-08T02:37:08;3.07;;;1.50;;
13571;SDS011;6857;53.484;10.216;2023-08-08T02:39:34;4.30;;;1.60;;
13571;SDS011;6857;53.484;10.216;2023-08-08T02:42:00;4.67;;;1.83;;
13571;SDS011;6857;53.484;10.216;2023-08-08T02:44:27;1.80;;;1.30;;
13571;SDS011;6857;53.484;10.216;2023-08-08T02:46:53;2.80;;;1.37;;
13571;SDS011;6857;53.484;10.216;2023-08-08T02:49:19;4.33;;;1.50;;
13571;SDS011;6857;53.484;10.216;2023-08-08T02:51:45;5.33;;;1.50;;
13571;SDS011;6857;53.484;10.216;2023-08-08T02:54:11;2.17;;;1.40;;
13571;SDS011;6857;53.484;10.216;2023-08-08T02:56:37;4.03;;;1.50;;
13571;SDS011;6857;53.484;10.216;2023-08-08T02:59:03;4.93;;;1.67;;
13571;SDS011;6857;53.484;10.216;2023-08-08T03:01:29;3.23;;;1.23;;
13571;SDS011;6857;53.484;10.216;2023-08-08T03:03:54;3.30;;;1.50;;
13571;SDS011;6857;53.484;10.216;2023-08-08T03:06:20;5.80;;;1.83;;
13571;SDS011;6857;53.484;10.216;2023-08-08T03:08:46;2.53;;;1.30;;
13571;SDS011;6857;53.484;10.216;2023-08-08T03:11:12;2.90;;;1.53;;
13571;SDS011;6857;53.484;10.216;2023-08-08T03:13:38;2.63;;;1.43;;
13571;SDS011;6857;53.484;10.216;2023-08-08T03:16:04;5.53;;;1.80;;
13571;SDS011;6857;53.484;10.216;2023-08-08T03:18:30;3.80;;;1.63;;
13571;SDS011;6857;53.484;10.216;2023-08-08T03:20:56;3.23;;;1.70;;
13571;SDS011;6857;53.484;10.216;2023-08-08T03:23:22;3.67;;;1.63;;
13571;SDS011;6857;53.484;10.216;2023-08-08T03:25:49;4.23;;;1.67;;
13571;SDS011;6857;53.484;10.216;2023-08-08T03:28:15;3.00;;;1.47;;
13571;SDS011;6857;53.484;10.216;2023-08-08T03:30:41;5.43;;;1.70;;
13571;SDS011;6857;53.484;10.216;2023-08-08T03:33:07;4.07;;;1.53;;
13571;SDS011;6857;53.484;10.216;2023-08-08T03:35:32;3.33;;;1.90;;
13571;SDS011;6857;53.484;10.216;2023-08-08T03:37:58;3.47;;;1.60;;
13571;SDS011;6857;53.484;10.216;2023-08-08T03:40:24;2.80;;;1.50;;
13571;SDS011;6857;53.484;10.216;2023-08-08T03:42:50;3.17;;;1.50;;
13571;SDS011;6857;53.484;10.216;2023-08-08T03:45:16;4.17;;;1.60;;
13571;SDS011;6857;53.484;10.216;2023-08-08T03:47:42;3.90;;;1.60;;
13571;SDS011;6857;53.484;10.216;2023-08-08T03:50:08;2.33;;;1.23;;
13571;SDS011;6857;53.484;10.216;2023-08-08T03:52:35;3.70;;;1.70;;
13571;SDS011;6857;53.484;10.216;2023-08-08T03:55:03;4.07;;;1.57;;
13571;SDS011;6857;53.484;10.216;2023-08-08T03:57:29;3.80;;;1.67;;
13571;SDS011;6857;53.484;10.216;2023-08-08T03:59:55;3.97;;;1.90;;
13571;SDS011;6857;53.484;10.216;2023-08-08T04:02:21;3.20;;;1.60;;
13571;SDS011;6857;53.484;10.216;2023-08-08T04:04:47;4.43;;;1.97;;
13571;SDS011;6857;53.484;10.216;2023-08-08T04:07:13;3.73;;;1.60;;
13571;SDS011;6857;53.484;10.216;2023-08-08T04:09:39;4.03;;;1.60;;
13571;SDS011;6857;53.484;10.216;2023-08-08T04:12:05;4.60;;;1.80;;
13571;SDS011;6857;53.484;10.216;2023-08-08T04:14:31;3.53;;;1.50;;
13571;SDS011;6857;53.484;10.216;2023-08-08T04:16:57;3.93;;;1.50;;
13571;SDS011;6857;53.484;10.216;2023-08-08T04:19:23;3.23;;;1.80;;
13571;SDS011;6857;53.484;10.216;2023-08-08T04:21:49;6.17;;;1.87;;
13571;SDS011;6857;53.484;10.216;2023-08-08T04:24:14;2.40;;;1.40;;
13571;SDS011;6857;53.484;10.216;2023-08-08T04:26:40;3.77;;;1.40;;
13571;SDS011;6857;53.484;10.216;2023-08-08T04:29:06;3.97;;;1.67;;
13571;SDS011;6857;53.484;10.216;2023-08-08T04:31:32;4.47;;;1.57;;
13571;SDS011;6857;53.484;10.216;2023-08-08T04:33:59;3.57;;;1.40;;
13571;SDS011;6857;53.484;10.216;2023-08-08T04:36:28;3.07;;;1.43;;
13571;SDS011;6857;53.484;10.216;2023-08-08T04:38:54;2.60;;;1.60;;
13571;SDS011;6857;53.484;10.216;2023-08-08T04:41:20;2.80;;;1.60;;
13571;SDS011;6857;53.484;10.216;2023-08-08T04:43:46;3.10;;;1.90;;
13571;SDS011;6857;53.484;10.216;2023-08-08T04:46:12;5.80;;;1.80;;
13571;SDS011;6857;53.484;10.216;2023-08-08T04:48:38;2.53;;;1.33;;
13571;SDS011;6857;53.484;10.216;2023-08-08T04:51:04;5.00;;;1.20;;
13571;SDS011;6857;53.484;10.216;2023-08-08T04:53:30;3.87;;;2.17;;
13571;SDS011;6857;53.484;10.216;2023-08-08T04:55:56;3.50;;;1.47;;
13571;SDS011;6857;53.484;10.216;2023-08-08T04:58:22;3.33;;;1.50;;
13571;SDS011;6857;53.484;10.216;2023-08-08T05:00:48;1.80;;;1.30;;
13571;SDS011;6857;53.484;10.216;2023-08-08T05:03:15;3.30;;;1.70;;
13571;SDS011;6857;53.484;10.216;2023-08-08T05:05:41;7.20;;;1.40;;
13571;SDS011;6857;53.484;10.216;2023-08-08T05:08:10;3.37;;;1.40;;
13571;SDS011;6857;53.484;10.216;2023-08-08T05:10:35;2.53;;;1.33;;
13571;SDS011;6857;53.484;10.216;2023-08-08T05:13:01;1.50;;;1.30;;
13571;SDS011;6857;53.484;10.216;2023-08-08T05:15:27;2.67;;;1.47;;
13571;SDS011;6857;53.484;10.216;2023-08-08T05:17:53;3.83;;;1.30;;
13571;SDS011;6857;53.484;10.216;2023-08-08T05:20:20;1.50;;;1.20;;
13571;SDS011;6857;53.484;10.216;2023-08-08T05:22:46;2.43;;;1.43;;
13571;SDS011;6857;53.484;10.216;2023-08-08T05:25:12;2.90;;;1.60;;
13571;SDS011;6857;53.484;10.216;2023-08-08T05:27:38;2.43;;;1.50;;
13571;SDS011;6857;53.484;10.216;2023-08-08T05:30:04;1.80;;;1.03;;
13571;SDS011;6857;53.484;10.216;2023-08-08T05:32:30;3.50;;;1.40;;
13571;SDS011;6857;53.484;10.216;2023-08-08T05:34:56;3.53;;;1.37;;
13571;SDS011;6857;53.484;10.216;2023-08-08T05:37:23;3.57;;;1.20;;
13571;SDS011;6857;53.484;10.216;2023-08-08T05:39:49;4.23;;;1.40;;
13571;SDS011;6857;53.484;10.216;2023-08-08T05:42:15;2.70;;;1.30;;
13571;SDS011;6857;53.484;10.216;2023-08-08T05:44:41;1.77;;;1.13;;
13571;SDS011;6857;53.484;10.216;2023-08-08T05:47:07;3.30;;;1.30;;
13571;SDS011;6857;53.484;10.216;2023-08-08T05:49:33;2.80;;;1.10;;
13571;SDS011;6857;53.484;10.216;2023-08-08T05:51:59;3.03;;;1.37;;
13571;SDS011;6857;53.484;10.216;2023-08-08T05:54:25;2.37;;;1.37;;
13571;SDS011;6857;53.484;10.216;2023-08-08T05:56:51;4.47;;;1.30;;
13571;SDS011;6857;53.484;10.216;2023-08-08T05:59:17;3.30;;;1.20;;
13571;SDS011;6857;53.484;10.216;2023-08-08T06:01:43;5.93;;;1.40;;
13571;SDS011;6857;53.484;10.216;2023-08-08T06:04:09;4.17;;;1.97;;
13571;SDS011;6857;53.484;10.216;2023-08-08T06:06:35;3.97;;;1.30;;
13571;SDS011;6857;53.484;10.216;2023-08-08T06:09:01;2.03;;;1.30;;
13571;SDS011;6857;53.484;10.216;2023-08-08T06:11:28;3.10;;;1.37;;
13571;SDS011;6857;53.484;10.216;2023-08-08T06:13:54;3.93;;;1.40;;
13571;SDS011;6857;53.484;10.216;2023-08-08T06:16:20;2.20;;;1.27;;
13571;SDS011;6857;53.484;10.216;2023-08-08T06:18:46;2.47;;;1.20;;
13571;SDS011;6857;53.484;10.216;2023-08-08T06:21:12;2.00;;;1.10;;
13571;SDS011;6857;53.484;10.216;2023-08-08T06:23:38;2.33;;;1.30;;
13571;SDS011;6857;53.484;10.216;2023-08-08T06:26:04;3.70;;;1.47;;
13571;SDS011;6857;53.484;10.216;2023-08-08T06:28:31;2.50;;;1.60;;
13571;SDS011;6857;53.484;10.216;2023-08-08T06:30:57;3.33;;;1.57;;
13571;SDS011;6857;53.484;10.216;2023-08-08T06:33:24;2.00;;;1.47;;
13571;SDS011;6857;53.484;10.216;2023-08-08T06:35:50;1.63;;;1.20;;
13571;SDS011;6857;53.484;10.216;2023-08-08T06:38:16;2.60;;;1.73;;
13571;SDS011;6857;53.484;10.216;2023-08-08T06:40:42;4.03;;;1.50;;
13571;SDS011;6857;53.484;10.216;2023-08-08T06:43:08;3.27;;;1.50;;
13571;SDS011;6857;53.484;10.216;2023-08-08T06:45:34;2.60;;;1.43;;
13571;SDS011;6857;53.484;10.216;2023-08-08T06:48:01;2.80;;;1.43;;
13571;SDS011;6857;53.484;10.216;2023-08-08T06:50:27;2.03;;;1.40;;
13571;SDS011;6857;53.484;10.216;2023-08-08T06:52:53;2.00;;;1.43;;
13571;SDS011;6857;53.484;10.216;2023-08-08T06:55:19;4.53;;;1.80;;
13571;SDS011;6857;53.484;10.216;2023-08-08T06:57:45;3.60;;;1.50;;
13571;SDS011;6857;53.484;10.216;2023-08-08T07:00:11;4.77;;;1.43;;
13571;SDS011;6857;53.484;10.216;2023-08-08T07:02:38;4.27;;;1.50;;
13571;SDS011;6857;53.484;10.216;2023-08-08T07:05:04;3.13;;;1.30;;
13571;SDS011;6857;53.484;10.216;2023-08-08T07:07:31;2.00;;;1.60;;
13571;SDS011;6857;53.484;10.216;2023-08-08T07:09:58;2.77;;;1.30;;
13571;SDS011;6857;53.484;10.216;2023-08-08T07:12:24;3.13;;;1.40;;
13571;SDS011;6857;53.484;10.216;2023-08-08T07:14:50;3.33;;;1.47;;
13571;SDS011;6857;53.484;10.216;2023-08-08T07:17:16;3.73;;;1.20;;
13571;SDS011;6857;53.484;10.216;2023-08-08T07:19:42;3.13;;;1.27;;
13571;SDS011;6857;53.484;10.216;2023-08-08T07:22:08;2.37;;;1.30;;
13571;SDS011;6857;53.484;10.216;2023-08-08T07:24:34;2.33;;;1.30;;
13571;SDS011;6857;53.484;10.216;2023-08-08T07:27:00;3.70;;;1.57;;
13571;SDS011;6857;53.484;10.216;2023-08-08T07:29:26;2.30;;;1.30;;
13571;SDS011;6857;53.484;10.216;2023-08-08T07:31:52;3.40;;;1.40;;
13571;SDS011;6857;53.484;10.216;2023-08-08T07:34:19;2.57;;;1.37;;
13571;SDS011;6857;53.484;10.216;2023-08-08T07:36:45;3.97;;;1.20;;
13571;SDS011;6857;53.484;10.216;2023-08-08T07:39:11;2.97;;;1.13;;
13571;SDS011;6857;53.484;10.216;2023-08-08T07:41:37;2.70;;;1.20;;
13571;SDS011;6857;53.484;10.216;2023-08-08T07:44:03;4.30;;;1.30;;
13571;SDS011;6857;53.484;10.216;2023-08-08T07:46:29;2.27;;;1.10;;
13571;SDS011;6857;53.484;10.216;2023-08-08T07:48:55;3.03;;;1.20;;
13571;SDS011;6857;53.484;10.216;2023-08-08T07:51:24;3.27;;;1.20;;
13571;SDS011;6857;53.484;10.216;2023-08-08T07:53:50;3.77;;;1.03;;
13571;SDS011;6857;53.484;10.216;2023-08-08T07:56:16;4.40;;;1.40;;
13571;SDS011;6857;53.484;10.216;2023-08-08T07:58:42;4.67;;;1.30;;
13571;SDS011;6857;53.484;10.216;2023-08-08T08:01:08;4.83;;;1.57;;
13571;SDS011;6857;53.484;10.216;2023-08-08T08:03:34;2.73;;;1.40;;
13571;SDS011;6857;53.484;10.216;2023-08-08T08:06:00;3.23;;;1.30;;
13571;SDS011;6857;53.484;10.216;2023-08-08T08:08:27;4.53;;;1.47;;
13571;SDS011;6857;53.484;10.216;2023-08-08T08:10:53;4.00;;;1.50;;
13571;SDS011;6857;53.484;10.216;2023-08-08T08:13:19;4.50;;;1.60;;
13571;SDS011;6857;53.484;10.216;2023-08-08T08:15:45;4.50;;;1.37;;
13571;SDS011;6857;53.484;10.216;2023-08-08T08:18:11;4.53;;;1.63;;
13571;SDS011;6857;53.484;10.216;2023-08-08T08:20:38;4.30;;;1.37;;
13571;SDS011;6857;53.484;10.216;2023-08-08T08:23:04;6.03;;;1.90;;
13571;SDS011;6857;53.484;10.216;2023-08-08T08:25:30;3.23;;;1.47;;
13571;SDS011;6857;53.484;10.216;2023-08-08T08:27:57;4.03;;;1.27;;
13571;SDS011;6857;53.484;10.216;2023-08-08T08:30:23;3.00;;;1.40;;
13571;SDS011;6857;53.484;10.216;2023-08-08T08:32:51;4.73;;;1.27;;
13571;SDS011;6857;53.484;10.216;2023-08-08T08:35:17;4.73;;;1.80;;
13571;SDS011;6857;53.484;10.216;2023-08-08T08:37:43;3.37;;;1.60;;
13571;SDS011;6857;53.484;10.216;2023-08-08T08:40:09;4.17;;;1.67;;
13571;SDS011;6857;53.484;10.216;2023-08-08T08:42:35;6.10;;;1.30;;
13571;SDS011;6857;53.484;10.216;2023-08-08T08:45:04;3.43;;;1.10;;
13571;SDS011;6857;53.484;10.216;2023-08-08T08:47:31;5.90;;;1.60;;
13571;SDS011;6857;53.484;10.216;2023-08-08T08:49:57;5.00;;;1.10;;
13571;SDS011;6857;53.484;10.216;2023-08-08T08:52:23;2.03;;;1.30;;
13571;SDS011;6857;53.484;10.216;2023-08-08T08:54:53;2.87;;;1.30;;
13571;SDS011;6857;53.484;10.216;2023-08-08T08:57:20;3.30;;;1.50;;
13571;SDS011;6857;53.484;10.216;2023-08-08T08:59:48;5.40;;;1.70;;
13571;SDS011;6857;53.484;10.216;2023-08-08T09:02:14;3.50;;;1.43;;
13571;SDS011;6857;53.484;10.216;2023-08-08T09:04:42;1.30;;;0.90;;
13571;SDS011;6857;53.484;10.216;2023-08-08T09:07:08;1.93;;;0.90;;
13571;SDS011;6857;53.484;10.216;2023-08-08T09:09:34;2.10;;;1.20;;
13571;SDS011;6857;53.484;10.216;2023-08-08T09:12:03;2.63;;;1.20;;
13571;SDS011;6857;53.484;10.216;2023-08-08T09:14:30;2.07;;;0.90;;
13571;SDS011;6857;53.484;10.216;2023-08-08T09:16:55;2.60;;;1.00;;
13571;SDS011;6857;53.484;10.216;2023-08-08T09:19:22;3.33;;;1.10;;
13571;SDS011;6857;53.484;10.216;2023-08-08T09:21:48;2.70;;;1.00;;
13571;SDS011;6857;53.484;10.216;2023-08-08T09:24:15;2.13;;;0.80;;
13571;SDS011;6857;53.484;10.216;2023-08-08T09:26:41;2.13;;;1.13;;
13571;SDS011;6857;53.484;10.216;2023-08-08T09:29:07;3.03;;;1.27;;
13571;SDS011;6857;53.484;10.216;2023-08-08T09:31:34;1.73;;;0.77;;
13571;SDS011;6857;53.484;10.216;2023-08-08T09:34:01;2.23;;;0.90;;
13571;SDS011;6857;53.484;10.216;2023-08-08T09:36:27;2.73;;;1.00;;
13571;SDS011;6857;53.484;10.216;2023-08-08T09:38:54;2.27;;;1.20;;
13571;SDS011;6857;53.484;10.216;2023-08-08T09:41:20;2.10;;;0.80;;
13571;SDS011;6857;53.484;10.216;2023-08-08T09:43:50;2.07;;;0.77;;
13571;SDS011;6857;53.484;10.216;2023-08-08T09:46:16;4.27;;;1.10;;
13571;SDS011;6857;53.484;10.216;2023-08-08T09:48:43;2.10;;;0.97;;
13571;SDS011;6857;53.484;10.216;2023-08-08T09:51:09;1.47;;;0.80;;
13571;SDS011;6857;53.484;10.216;2023-08-08T09:53:36;2.10;;;1.17;;
13571;SDS011;6857;53.484;10.216;2023-08-08T09:56:03;2.13;;;0.80;;
13571;SDS011;6857;53.484;10.216;2023-08-08T09:58:29;3.37;;;1.10;;
13571;SDS011;6857;53.484;10.216;2023-08-08T10:00:55;4.17;;;1.00;;
13571;SDS011;6857;53.484;10.216;2023-08-08T10:03:21;1.47;;;0.97;;
13571;SDS011;6857;53.484;10.216;2023-08-08T10:05:48;3.60;;;0.93;;
13571;SDS011;6857;53.484;10.216;2023-08-08T10:08:14;2.60;;;1.00;;
13571;SDS011;6857;53.484;10.216;2023-08-08T10:10:40;1.73;;;0.80;;
13571;SDS011;6857;53.484;10.216;2023-08-08T10:13:07;1.50;;;0.70;;
13571;SDS011;6857;53.484;10.216;2023-08-08T10:15:36;1.60;;;0.80;;
13571;SDS011;6857;53.484;10.216;2023-08-08T10:18:04;3.60;;;0.90;;
13571;SDS011;6857;53.484;10.216;2023-08-08T10:20:31;4.87;;;0.87;;
13571;SDS011;6857;53.484;10.216;2023-08-08T10:22:59;2.87;;;1.07;;
13571;SDS011;6857;53.484;10.216;2023-08-08T10:25:27;4.87;;;1.00;;
13571;SDS011;6857;53.484;10.216;2023-08-08T10:28:08;1.90;;;1.00;;
13571;SDS011;6857;53.484;10.216;2023-08-08T10:30:42;2.60;;;1.10;;
13571;SDS011;6857;53.484;10.216;2023-08-08T10:33:15;2.77;;;0.80;;
13571;SDS011;6857;53.484;10.216;2023-08-08T10:35:50;3.50;;;0.93;;
13571;SDS011;6857;53.484;10.216;2023-08-08T10:38:16;2.40;;;1.20;;
13571;SDS011;6857;53.484;10.216;2023-08-08T10:40:42;5.20;;;1.10;;
13571;SDS011;6857;53.484;10.216;2023-08-08T10:43:11;5.03;;;1.50;;
13571;SDS011;6857;53.484;10.216;2023-08-08T10:45:40;2.63;;;1.30;;
13571;SDS011;6857;53.484;10.216;2023-08-08T10:48:08;3.30;;;1.23;;
13571;SDS011;6857;53.484;10.216;2023-08-08T10:50:37;3.07;;;1.20;;
13571;SDS011;6857;53.484;10.216;2023-08-08T10:53:03;4.07;;;1.30;;
13571;SDS011;6857;53.484;10.216;2023-08-08T10:55:35;5.97;;;1.30;;
13571;SDS011;6857;53.484;10.216;2023-08-08T11:00:31;1.70;;;1.10;;
13571;SDS011;6857;53.484;10.216;2023-08-08T11:02:58;3.77;;;1.37;;
13571;SDS011;6857;53.484;10.216;2023-08-08T11:05:24;3.27;;;1.30;;
13571;SDS011;6857;53.484;10.216;2023-08-08T11:07:51;4.03;;;1.43;;
13571;SDS011;6857;53.484;10.216;2023-08-08T11:10:17;1.23;;;0.80;;
13571;SDS011;6857;53.484;10.216;2023-08-08T11:12:53;4.17;;;1.20;;
13571;SDS011;6857;53.484;10.216;2023-08-08T11:15:19;2.33;;;1.20;;
13571;SDS011;6857;53.484;10.216;2023-08-08T11:17:45;3.10;;;1.40;;
13571;SDS011;6857;53.484;10.216;2023-08-08T11:20:11;3.67;;;1.10;;
13571;SDS011;6857;53.484;10.216;2023-08-08T11:22:37;4.67;;;1.13;;
13571;SDS011;6857;53.484;10.216;2023-08-08T11:25:03;2.43;;;1.07;;
13571;SDS011;6857;53.484;10.216;2023-08-08T11:27:29;4.73;;;1.20;;
13571;SDS011;6857;53.484;10.216;2023-08-08T11:29:56;2.30;;;0.87;;
13571;SDS011;6857;53.484;10.216;2023-08-08T11:32:23;2.47;;;0.77;;
13571;SDS011;6857;53.484;10.216;2023-08-08T11:34:49;3.10;;;1.23;;
13571;SDS011;6857;53.484;10.216;2023-08-08T11:37:15;2.50;;;1.07;;
13571;SDS011;6857;53.484;10.216;2023-08-08T11:39:42;1.30;;;0.87;;
13571;SDS011;6857;53.484;10.216;2023-08-08T11:42:08;1.73;;;0.90;;
13571;SDS011;6857;53.484;10.216;2023-08-08T11:44:34;4.33;;;0.90;;
13571;SDS011;6857;53.484;10.216;2023-08-08T11:47:01;3.30;;;1.00;;
13571;SDS011;6857;53.484;10.216;2023-08-08T11:49:27;2.63;;;1.30;;
13571;SDS011;6857;53.484;10.216;2023-08-08T11:51:53;3.03;;;1.47;;
13571;SDS011;6857;53.484;10.216;2023-08-08T11:54:26;2.23;;;1.07;;
13571;SDS011;6857;53.484;10.216;2023-08-08T11:56:53;2.53;;;1.07;;
13571;SDS011;6857;53.484;10.216;2023-08-08T11:59:19;4.90;;;1.67;;
13571;SDS011;6857;53.484;10.216;2023-08-08T12:01:45;2.07;;;1.30;;
13571;SDS011;6857;53.484;10.216;2023-08-08T12:04:11;2.90;;;1.20;;
13571;SDS011;6857;53.484;10.216;2023-08-08T12:06:37;2.83;;;0.93;;
13571;SDS011;6857;53.484;10.216;2023-08-08T12:09:11;5.77;;;1.50;;
13571;SDS011;6857;53.484;10.216;2023-08-08T12:11:38;2.70;;;1.00;;
13571;SDS011;6857;53.484;10.216;2023-08-08T12:14:07;2.33;;;0.97;;
13571;SDS011;6857;53.484;10.216;2023-08-08T12:16:34;2.53;;;1.10;;
13571;SDS011;6857;53.484;10.216;2023-08-08T12:19:04;2.60;;;1.00;;
13571;SDS011;6857;53.484;10.216;2023-08-08T12:21:32;2.50;;;1.03;;
13571;SDS011;6857;53.484;10.216;2023-08-08T12:23:58;2.20;;;1.20;;
13571;SDS011;6857;53.484;10.216;2023-08-08T12:26:24;2.03;;;1.00;;
13571;SDS011;6857;53.484;10.216;2023-08-08T12:28:50;3.50;;;1.10;;
13571;SDS011;6857;53.484;10.216;2023-08-08T12:31:18;2.93;;;1.20;;
13571;SDS011;6857;53.484;10.216;2023-08-08T12:33:44;2.33;;;0.90;;
13571;SDS011;6857;53.484;10.216;2023-08-08T12:36:10;2.27;;;1.00;;
13571;SDS011;6857;53.484;10.216;2023-08-08T12:38:36;2.77;;;1.10;;
13571;SDS011;6857;53.484;10.216;2023-08-08T12:41:02;3.70;;;1.27;;
13571;SDS011;6857;53.484;10.216;2023-08-08T12:43:28;3.03;;;1.23;;
13571;SDS011;6857;53.484;10.216;2023-08-08T12:45:54;2.27;;;1.10;;
13571;SDS011;6857;53.484;10.216;2023-08-08T12:48:20;2.80;;;1.07;;
13571;SDS011;6857;53.484;10.216;2023-08-08T12:50:46;2.93;;;0.87;;
13571;SDS011;6857;53.484;10.216;2023-08-08T12:53:12;1.70;;;0.90;;
13571;SDS011;6857;53.484;10.216;2023-08-08T12:55:38;1.90;;;0.70;;
13571;SDS011;6857;53.484;10.216;2023-08-08T12:58:04;3.53;;;1.00;;
13571;SDS011;6857;53.484;10.216;2023-08-08T13:00:30;3.27;;;1.07;;
13571;SDS011;6857;53.484;10.216;2023-08-08T13:02:57;3.20;;;1.07;;
13571;SDS011;6857;53.484;10.216;2023-08-08T13:05:23;3.73;;;1.17;;
13571;SDS011;6857;53.484;10.216;2023-08-08T13:07:49;4.57;;;1.10;;
13571;SDS011;6857;53.484;10.216;2023-08-08T13:10:15;3.00;;;1.30;;
13571;SDS011;6857;53.484;10.216;2023-08-08T13:12:41;3.70;;;0.97;;
13571;SDS011;6857;53.484;10.216;2023-08-08T13:15:07;5.83;;;1.50;;
13571;SDS011;6857;53.484;10.216;2023-08-08T13:17:34;3.57;;;1.20;;
13571;SDS011;6857;53.484;10.216;2023-08-08T13:20:00;3.37;;;1.10;;
13571;SDS011;6857;53.484;10.216;2023-08-08T13:22:26;4.10;;;1.20;;
13571;SDS011;6857;53.484;10.216;2023-08-08T13:24:52;2.37;;;1.33;;
13571;SDS011;6857;53.484;10.216;2023-08-08T13:27:18;4.53;;;1.33;;
13571;SDS011;6857;53.484;10.216;2023-08-08T13:29:44;4.70;;;1.30;;
13571;SDS011;6857;53.484;10.216;2023-08-08T13:32:09;4.53;;;1.70;;
13571;SDS011;6857;53.484;10.216;2023-08-08T13:34:35;3.27;;;1.37;;
13571;SDS011;6857;53.484;10.216;2023-08-08T13:37:01;5.40;;;1.80;;
13571;SDS011;6857;53.484;10.216;2023-08-08T13:39:28;5.40;;;2.03;;
13571;SDS011;6857;53.484;10.216;2023-08-08T13:41:54;8.60;;;2.10;;
13571;SDS011;6857;53.484;10.216;2023-08-08T13:44:20;7.33;;;1.80;;
13571;SDS011;6857;53.484;10.216;2023-08-08T13:46:46;4.53;;;1.80;;
13571;SDS011;6857;53.484;10.216;2023-08-08T13:49:12;5.63;;;1.80;;
13571;SDS011;6857;53.484;10.216;2023-08-08T13:51:38;3.53;;;1.50;;
13571;SDS011;6857;53.484;10.216;2023-08-08T13:54:04;5.13;;;1.70;;
13571;SDS011;6857;53.484;10.216;2023-08-08T13:56:30;5.30;;;1.63;;
13571;SDS011;6857;53.484;10.216;2023-08-08T13:58:56;4.33;;;1.53;;
13571;SDS011;6857;53.484;10.216;2023-08-08T14:01:22;4.23;;;1.30;;
13571;SDS011;6857;53.484;10.216;2023-08-08T14:03:48;6.80;;;2.03;;
13571;SDS011;6857;53.484;10.216;2023-08-08T14:06:14;2.83;;;1.30;;
13571;SDS011;6857;53.484;10.216;2023-08-08T14:08:40;4.73;;;1.30;;
13571;SDS011;6857;53.484;10.216;2023-08-08T14:11:06;5.50;;;1.40;;
13571;SDS011;6857;53.484;10.216;2023-08-08T14:13:32;6.77;;;1.37;;
13571;SDS011;6857;53.484;10.216;2023-08-08T14:15:59;6.10;;;1.40;;
13571;SDS011;6857;53.484;10.216;2023-08-08T14:18:25;4.43;;;1.43;;
13571;SDS011;6857;53.484;10.216;2023-08-08T14:20:51;4.93;;;1.30;;
13571;SDS011;6857;53.484;10.216;2023-08-08T14:23:18;5.00;;;1.50;;
13571;SDS011;6857;53.484;10.216;2023-08-08T14:25:44;4.37;;;1.40;;
13571;SDS011;6857;53.484;10.216;2023-08-08T14:28:10;5.40;;;1.33;;
13571;SDS011;6857;53.484;10.216;2023-08-08T14:30:36;5.07;;;1.40;;
13571;SDS011;6857;53.484;10.216;2023-08-08T14:33:02;4.00;;;1.73;;
13571;SDS011;6857;53.484;10.216;2023-08-08T14:35:28;5.10;;;1.40;;
13571;SDS011;6857;53.484;10.216;2023-08-08T14:37:54;5.57;;;1.90;;
13571;SDS011;6857;53.484;10.216;2023-08-08T14:40:20;5.47;;;1.80;;
13571;SDS011;6857;53.484;10.216;2023-08-08T14:42:46;4.40;;;1.30;;
13571;SDS011;6857;53.484;10.216;2023-08-08T14:45:12;6.53;;;1.80;;